»·PEaware :: N123AN KSNA-KCRQ

N123AN :: KSNA-KCRQ

FLIGHT INFORMATION

Flight Status: Arrived
Operator: Privately registered:
United States
More flights under this callsign
Pilot: Vaclav J. (27943)
Aircraft: CESSNA 182 SKYLANE
(C182)
More flights by this aircraft type
Origin: KSNA John Wayne-Orange Co
United States
Destination: KCRQ McClellan-Palomar
United States
More flights between these airports :: More routes between these airports
Route: +V23 OCN
File this flight plan on PilotEdge
Remarks:
Altitude:
(Current/Filed)
5,000ft
Speed:
(Current/Filed)
140kts
Departed: 21-Apr-20 11:26 AM
Arrived: 21-Apr-20 12:00 PM
Distance/Time
Traveled:
44nm/0:34
Distance/Time
To Go:
Arrived

Flight Plot

Page will automatically refresh every two minutes.


Map Options




Map Legend


Flown Route
Filed Route
Departure Airport
Arrival Airport
Navaid (VOR, NDB)
Fix

Horizontal Profiles

Position Reports

Time Latitude Longitude Heading Altitude Ground
Speed
21-Apr-20 10:54 33.680326 -117.861569 118 62ft 0kts
21-Apr-20 10:55 33.680326 -117.861569 118 62ft 0kts
21-Apr-20 10:56 33.680326 -117.861569 118 62ft 0kts
21-Apr-20 10:57 33.680326 -117.861569 118 62ft 0kts
21-Apr-20 10:58 33.680326 -117.861569 118 62ft 0kts
21-Apr-20 10:59 33.680326 -117.861569 118 62ft 0kts
21-Apr-20 11:00 33.680326 -117.861569 118 62ft 0kts
21-Apr-20 11:01 33.680326 -117.861569 118 62ft 0kts
21-Apr-20 11:02 33.680326 -117.861569 118 62ft 0kts
21-Apr-20 11:03 33.680326 -117.861569 118 62ft 0kts
21-Apr-20 11:05 33.680326 -117.861569 118 62ft 0kts
21-Apr-20 11:06 33.680326 -117.861569 118 62ft 0kts
21-Apr-20 11:07 33.680326 -117.861569 118 62ft 0kts
21-Apr-20 11:08 33.680326 -117.861569 118 62ft 0kts
21-Apr-20 11:09 33.680326 -117.861569 118 62ft 0kts
21-Apr-20 11:10 33.680326 -117.861569 118 62ft 0kts
21-Apr-20 11:11 33.680326 -117.861569 118 62ft 0kts
21-Apr-20 11:12 33.680326 -117.861569 118 62ft 0kts
21-Apr-20 11:13 33.680326 -117.861569 118 62ft 0kts
21-Apr-20 11:14 33.680326 -117.861569 118 62ft 0kts
21-Apr-20 11:15 33.680326 -117.861569 118 62ft 0kts
21-Apr-20 11:16 33.680207 -117.861716 256 62ft 5kts
21-Apr-20 11:17 33.679836 -117.863369 300 62ft 7kts
21-Apr-20 11:18 33.679932 -117.863575 296 62ft 0kts
21-Apr-20 11:19 33.679933 -117.863575 296 62ft 0kts
21-Apr-20 11:20 33.679932 -117.863574 296 62ft 0kts
21-Apr-20 11:21 33.679932 -117.863574 296 62ft 0kts
21-Apr-20 11:22 33.679932 -117.863574 296 62ft 0kts
21-Apr-20 11:23 33.679932 -117.863574 296 62ft 0kts
21-Apr-20 11:23 33.679932 -117.863574 296 62ft 0kts
21-Apr-20 11:24 33.679932 -117.863574 296 62ft 0kts
21-Apr-20 11:26 33.668159 -117.868936 189 608ft 76kts
21-Apr-20 11:27 33.645086 -117.871489 188 1764ft 89kts
21-Apr-20 11:27 33.624562 -117.873519 189 2681ft 100kts
21-Apr-20 11:28 33.599929 -117.872736 135 4103ft 84kts
21-Apr-20 11:30 33.588005 -117.834582 110 4997ft 132kts
21-Apr-20 11:30 33.568276 -117.800925 139 5007ft 163kts
21-Apr-20 11:31 33.538467 -117.765863 138 5008ft 169kts
21-Apr-20 11:32 33.503822 -117.725215 137 5011ft 170kts
21-Apr-20 11:33 33.470207 -117.685792 137 5014ft 167kts
21-Apr-20 11:34 33.436994 -117.646899 136 5020ft 167kts
21-Apr-20 11:35 33.403562 -117.607767 136 5024ft 168kts
21-Apr-20 11:36 33.370149 -117.568710 135 5024ft 168kts
21-Apr-20 11:37 33.336654 -117.529587 136 5022ft 168kts
21-Apr-20 11:38 33.303167 -117.490538 136 5019ft 168kts
21-Apr-20 11:39 33.269724 -117.451572 136 5014ft 168kts
21-Apr-20 11:40 33.238794 -117.411072 99 5014ft 167kts
21-Apr-20 11:41 33.235024 -117.355998 93 5011ft 167kts
21-Apr-20 11:42 33.232097 -117.303440 92 4946ft 144kts
21-Apr-20 11:43 33.229237 -117.258361 90 4979ft 137kts
21-Apr-20 11:44 33.227380 -117.213102 91 4989ft 132kts
21-Apr-20 11:45 33.225560 -117.168883 90 4977ft 135kts
21-Apr-20 11:46 33.223806 -117.124533 90 4980ft 135kts
21-Apr-20 11:47 33.221822 -117.079814 91 4977ft 135kts
21-Apr-20 11:48 33.202405 -117.039872 132 4411ft 148kts
21-Apr-20 11:49 33.178472 -117.033520 220 3702ft 88kts
21-Apr-20 11:50 33.165039 -117.054665 257 3684ft 84kts
21-Apr-20 11:51 33.160292 -117.082671 260 3525ft 79kts
21-Apr-20 11:52 33.155849 -117.111005 257 3311ft 85kts
21-Apr-20 11:53 33.151278 -117.138531 258 2751ft 81kts
21-Apr-20 11:54 33.147435 -117.164767 256 2296ft 81kts
21-Apr-20 11:55 33.142509 -117.190754 256 1844ft 80kts
21-Apr-20 11:56 33.138555 -117.217433 254 1358ft 80kts
21-Apr-20 11:57 33.134195 -117.244267 258 855ft 86kts
21-Apr-20 11:58 33.129845 -117.270352 255 382ft 64kts
21-Apr-20 11:59 33.127841 -117.279567 210 337ft 10kts
21-Apr-20 12:00 33.127580 -117.279586 165 337ft 0kts
21-Apr-20 12:01 33.127569 -117.279583 165 337ft 0kts
21-Apr-20 12:02 33.127527 -117.276152 142 337ft 5kts
21-Apr-20 12:03 33.127713 -117.275949 345 337ft 0kts

Navigation Log

Ident Type
Flight plan parsing failed, navigation log unavailable